createdAt,value
2018-07-25T00:01:12.743Z,99723.45
2018-07-25T00:03:38.755Z,99723.45
2018-07-25T00:06:04.756Z,99724.41
2018-07-25T00:08:30.793Z,99727.28
2018-07-25T00:10:56.809Z,99724.52
2018-07-25T00:13:23.525Z,99726.40
2018-07-25T00:15:49.518Z,99723.87
2018-07-25T00:18:15.520Z,99727.25
2018-07-25T00:20:41.513Z,99716.05
2018-07-25T00:23:07.506Z,99719.07
2018-07-25T00:25:33.478Z,99720.43
2018-07-25T00:27:59.461Z,99719.14
2018-07-25T00:30:25.493Z,99724.34
2018-07-25T00:32:51.467Z,99718.34
2018-07-25T00:35:17.419Z,99719.83
2018-07-25T00:37:43.420Z,99715.16
2018-07-25T00:40:09.429Z,99712.08
2018-07-25T00:42:35.434Z,99714.88
2018-07-25T00:45:01.434Z,99711.74
2018-07-25T00:47:27.430Z,99710.90
2018-07-25T00:49:53.436Z,99717.49
2018-07-25T00:52:19.454Z,99712.02
2018-07-25T00:54:45.444Z,99706.26
2018-07-25T00:57:11.407Z,99699.41
2018-07-25T00:59:37.440Z,99703.05
2018-07-25T01:02:03.475Z,99702.35
2018-07-25T01:04:29.438Z,99696.02
2018-07-25T01:06:55.454Z,99701.61
2018-07-25T01:09:21.412Z,99696.85
2018-07-25T01:11:47.438Z,99692.70
2018-07-25T01:14:13.425Z,99690.56
2018-07-25T01:16:39.380Z,99701.41
2018-07-25T01:19:05.378Z,99694.92
2018-07-25T01:21:31.342Z,99696.20
2018-07-25T01:23:57.333Z,99701.84
2018-07-25T01:26:23.277Z,99702.07
2018-07-25T01:28:49.345Z,99702.53
2018-07-25T01:31:15.303Z,99702.13
2018-07-25T01:33:41.277Z,99707.20
2018-07-25T01:36:07.821Z,99706.73
2018-07-25T01:38:33.840Z,99701.33
2018-07-25T01:40:59.859Z,99703.13
2018-07-25T01:43:25.849Z,99708.48
2018-07-25T01:45:51.842Z,99704.13
2018-07-25T01:48:17.863Z,99707.42
2018-07-25T01:50:43.858Z,99710.91
2018-07-25T01:53:09.893Z,99710.84
2018-07-25T01:55:36.217Z,99709.06
2018-07-25T01:58:02.233Z,99705.61
2018-07-25T02:00:28.269Z,99708.97
2018-07-25T02:02:54.222Z,99697.84
2018-07-25T02:05:20.215Z,99700.62
2018-07-25T02:07:46.228Z,99707.82
2018-07-25T02:10:12.467Z,99708.55
2018-07-25T02:12:38.441Z,99711.20
2018-07-25T02:15:04.487Z,99711.64
2018-07-25T02:17:30.444Z,99710.91
2018-07-25T02:19:56.488Z,99712.33
2018-07-25T02:22:22.506Z,99719.63
2018-07-25T02:24:48.502Z,99717.13
2018-07-25T02:27:14.467Z,99716.41
2018-07-25T02:29:40.487Z,99718.83
2018-07-25T02:32:06.473Z,99716.28
2018-07-25T02:34:32.476Z,99719.27
2018-07-25T02:36:58.470Z,99723.20
2018-07-25T02:39:24.492Z,99718.60
2018-07-25T02:41:50.502Z,99719.81
2018-07-25T02:44:16.532Z,99720.13
2018-07-25T02:46:42.589Z,99727.25
2018-07-25T02:49:08.599Z,99729.70
2018-07-25T02:51:34.630Z,99732.47
2018-07-25T02:54:00.649Z,99729.42
2018-07-25T02:56:26.723Z,99727.59
2018-07-25T02:58:52.730Z,99726.48
2018-07-25T03:01:18.759Z,99726.54
2018-07-25T03:03:44.805Z,99732.70
2018-07-25T03:06:10.823Z,99729.76
2018-07-25T03:08:37.822Z,99728.77
2018-07-25T03:11:03.851Z,99726.39
2018-07-25T03:13:29.850Z,99727.46
2018-07-25T03:15:55.899Z,99727.56
2018-07-25T03:18:23.068Z,99731.79
2018-07-25T03:20:49.154Z,99733.38
2018-07-25T03:23:15.158Z,99736.77
2018-07-25T03:25:41.179Z,99743.37
2018-07-25T03:28:07.257Z,99744.53
2018-07-25T03:30:33.304Z,99744.89
2018-07-25T03:35:30.614Z,99750.65
2018-07-25T03:37:56.675Z,99750.92
2018-07-25T03:40:22.773Z,99746.06
2018-07-25T03:45:19.859Z,99757.40
2018-07-25T03:47:45.904Z,99759.23
2018-07-25T03:50:11.930Z,99758.77
2018-07-25T03:52:37.902Z,99755.83
2018-07-25T03:55:03.983Z,99753.45
2018-07-25T03:57:29.995Z,99757.61
2018-07-25T03:59:56.030Z,99761.27
2018-07-25T04:02:22.045Z,99763.78
2018-07-25T04:04:52.824Z,99765.41
2018-07-25T04:07:18.797Z,99768.66
2018-07-25T04:09:44.778Z,99763.20
2018-07-25T04:12:10.838Z,99764.25
2018-07-25T04:14:36.821Z,99759.33
2018-07-25T04:17:02.852Z,99763.70
2018-07-25T04:19:28.845Z,99768.83
2018-07-25T04:21:55.775Z,99771.55
2018-07-25T04:24:21.819Z,99770.52
2018-07-25T04:26:47.869Z,99768.64
2018-07-25T04:29:13.943Z,99775.66
2018-07-25T04:31:39.957Z,99781.55
2018-07-25T04:34:05.954Z,99783.98
2018-07-25T04:36:31.978Z,99778.25
2018-07-25T04:38:58.035Z,99777.03
2018-07-25T04:41:24.103Z,99784.23
2018-07-25T04:43:50.146Z,99783.23
2018-07-25T04:46:16.264Z,99789.21
2018-07-25T04:48:42.212Z,99790.09
2018-07-25T04:51:09.535Z,99790.57
2018-07-25T04:53:35.709Z,99791.00
2018-07-25T04:56:01.762Z,99788.30
2018-07-25T04:58:27.842Z,99795.75
2018-07-25T05:00:53.917Z,99798.66
2018-07-25T05:03:20.103Z,99800.27
2018-07-25T05:05:50.754Z,99801.89
2018-07-25T05:08:16.773Z,99806.72
2018-07-25T05:10:42.877Z,99807.39
2018-07-25T05:13:09.080Z,99806.64
2018-07-25T05:15:35.194Z,99806.67
2018-07-25T05:18:01.370Z,99805.50
2018-07-25T05:20:27.513Z,99802.19
2018-07-25T05:22:54.598Z,99800.79
2018-07-25T05:25:20.651Z,99803.33
2018-07-25T05:27:46.746Z,99804.53
2018-07-25T05:30:12.798Z,99805.63
2018-07-25T05:32:38.812Z,99811.62
2018-07-25T05:35:04.838Z,99813.35
2018-07-25T05:37:30.856Z,99809.86
2018-07-25T05:39:56.999Z,99815.53
2018-07-25T05:42:23.020Z,99816.70
2018-07-25T05:44:49.131Z,99815.93
2018-07-25T05:47:15.144Z,99811.50
2018-07-25T05:49:41.216Z,99811.71
2018-07-25T05:52:07.272Z,99814.97
2018-07-25T05:54:33.264Z,99817.33
2018-07-25T05:56:59.249Z,99817.66
2018-07-25T05:59:25.284Z,99815.64
2018-07-25T06:01:51.264Z,99814.03
2018-07-25T06:04:17.320Z,99815.16
2018-07-25T06:06:43.286Z,99813.20
2018-07-25T06:09:09.308Z,99812.67
2018-07-25T06:11:35.320Z,99811.96
2018-07-25T06:14:01.320Z,99809.69
2018-07-25T06:16:27.325Z,99812.45
2018-07-25T06:18:53.371Z,99816.34
2018-07-25T06:21:20.806Z,99825.56
2018-07-25T06:23:46.869Z,99827.56
2018-07-25T06:26:12.874Z,99828.76
2018-07-25T06:28:38.892Z,99834.97
2018-07-25T06:31:04.893Z,99833.42
2018-07-25T06:33:31.044Z,99834.70
2018-07-25T06:35:57.036Z,99826.77
2018-07-25T06:38:23.076Z,99835.80
2018-07-25T06:40:49.093Z,99833.90
2018-07-25T06:43:15.158Z,99833.14
2018-07-25T06:45:41.777Z,99834.88
2018-07-25T06:48:07.821Z,99833.95
2018-07-25T06:50:33.824Z,99838.38
2018-07-25T06:52:59.879Z,99838.19
2018-07-25T06:55:25.916Z,99843.58
2018-07-25T06:57:51.937Z,99846.12
2018-07-25T07:00:17.969Z,99849.88
2018-07-25T07:02:44.002Z,99841.64
2018-07-25T07:05:10.059Z,99845.25
2018-07-25T07:07:36.116Z,99844.39
2018-07-25T07:10:02.115Z,99838.57
2018-07-25T07:12:28.165Z,99840.09
2018-07-25T07:14:54.149Z,99845.62
2018-07-25T07:17:20.167Z,99840.62
2018-07-25T07:19:46.193Z,99845.08
2018-07-25T07:22:12.236Z,99838.38
2018-07-25T07:24:38.370Z,99835.48
2018-07-25T07:27:06.503Z,99847.06
2018-07-25T07:29:34.200Z,99850.94
2018-07-25T07:32:01.091Z,99849.34
2018-07-25T07:34:29.731Z,99853.44
2018-07-25T07:36:57.071Z,99849.33
2018-07-25T07:39:23.144Z,99856.83
2018-07-25T07:41:49.649Z,99856.83
2018-07-25T07:44:15.680Z,99857.44
2018-07-25T07:46:41.572Z,99855.48
2018-07-25T07:51:38.523Z,99857.52
2018-07-25T07:54:04.569Z,99854.39
2018-07-25T07:56:30.569Z,99856.16
2018-07-25T07:58:56.523Z,99855.35
2018-07-25T08:01:22.480Z,99855.48
2018-07-25T08:03:48.456Z,99858.27
2018-07-25T08:06:14.429Z,99857.05
2018-07-25T08:08:40.448Z,99860.94
2018-07-25T08:11:06.422Z,99862.59
2018-07-25T08:13:32.417Z,99856.19
2018-07-25T08:15:58.415Z,99858.28
2018-07-25T08:18:24.410Z,99864.05
2018-07-25T08:20:50.404Z,99867.06
2018-07-25T08:23:16.391Z,99861.45
2018-07-25T08:25:42.407Z,99864.58
2018-07-25T08:28:08.383Z,99870.58
2018-07-25T08:30:34.387Z,99866.71
2018-07-25T08:33:00.359Z,99871.52
2018-07-25T08:35:26.330Z,99870.39
2018-07-25T08:37:52.329Z,99869.16
2018-07-25T08:40:20.534Z,99858.63
2018-07-25T08:42:47.040Z,99863.22
2018-07-25T08:45:13.895Z,99859.58
2018-07-25T08:47:40.650Z,99859.55
2018-07-25T08:50:07.396Z,99858.02
2018-07-25T08:52:35.727Z,99854.03
2018-07-25T08:55:02.858Z,99853.42
2018-07-25T08:57:29.627Z,99849.05
2018-07-25T08:59:58.313Z,99842.11
2018-07-25T09:02:24.650Z,99841.33
2018-07-25T09:04:54.014Z,99854.98
2018-07-25T09:07:22.302Z,99849.30
2018-07-25T09:09:50.915Z,99850.00
2018-07-25T09:12:18.292Z,99839.48
2018-07-25T09:14:45.310Z,99845.70
2018-07-25T09:17:11.867Z,99844.15
2018-07-25T09:19:38.487Z,99849.49
2018-07-25T09:22:06.203Z,99835.80
2018-07-25T09:24:33.269Z,99846.80
2018-07-25T09:27:03.571Z,99840.97
2018-07-25T09:29:33.668Z,99844.66
2018-07-25T09:32:04.104Z,99843.37
2018-07-25T09:34:31.025Z,99835.05
2018-07-25T09:36:59.784Z,99835.34
2018-07-25T09:39:29.617Z,99832.45
2018-07-25T09:41:56.465Z,99839.58
2018-07-25T09:44:25.480Z,99838.48
2018-07-25T09:46:52.520Z,99836.24
2018-07-25T09:49:19.422Z,99836.53
2018-07-25T09:51:46.269Z,99833.95
2018-07-25T09:54:13.753Z,99832.66
2018-07-25T09:56:40.954Z,99833.05
2018-07-25T09:59:08.886Z,99836.99
2018-07-25T10:01:36.431Z,99846.73
2018-07-25T10:04:04.587Z,99841.46
2018-07-25T10:06:34.461Z,99833.33
2018-07-25T10:09:02.349Z,99829.97
2018-07-25T10:11:31.381Z,99831.55
2018-07-25T10:13:57.730Z,99826.20
2018-07-25T10:16:24.503Z,99831.77
2018-07-25T10:18:52.263Z,99826.59
2018-07-25T10:21:20.131Z,99821.73
2018-07-25T10:23:47.047Z,99824.16
2018-07-25T10:26:14.299Z,99824.00
2018-07-25T10:28:41.067Z,99820.27
2018-07-25T10:31:07.944Z,99818.91
2018-07-25T10:33:34.860Z,99813.99
2018-07-25T10:36:05.870Z,99814.55
2018-07-25T10:38:34.688Z,99818.98
2018-07-25T10:41:01.916Z,99815.84
2018-07-25T10:43:28.752Z,99815.30
2018-07-25T10:45:58.313Z,99810.30
2018-07-25T10:48:25.611Z,99816.95
2018-07-25T10:50:52.591Z,99807.52
2018-07-25T10:53:20.031Z,99813.80
2018-07-25T10:55:50.389Z,99806.62
2018-07-25T10:58:20.711Z,99801.05
2018-07-25T11:00:47.771Z,99806.78
2018-07-25T11:03:15.547Z,99802.31
2018-07-25T11:05:43.310Z,99800.11
2018-07-25T11:08:10.139Z,99804.48
2018-07-25T11:10:37.539Z,99794.58
2018-07-25T11:13:04.592Z,99798.66
2018-07-25T11:15:34.576Z,99784.61
2018-07-25T11:18:01.207Z,99789.95
2018-07-25T11:20:28.015Z,99784.22
2018-07-25T11:22:57.453Z,99785.06
2018-07-25T11:25:27.754Z,99775.16
2018-07-25T11:27:54.516Z,99774.90
2018-07-25T11:30:20.630Z,99776.61
2018-07-25T11:32:46.643Z,99772.37
2018-07-25T11:35:12.614Z,99769.59
2018-07-25T11:37:38.579Z,99763.86
2018-07-25T11:40:04.577Z,99771.16
2018-07-25T11:42:30.564Z,99764.11
2018-07-25T11:44:56.535Z,99775.50
2018-07-25T11:47:22.512Z,99760.22
2018-07-25T11:49:48.496Z,99765.12
2018-07-25T11:52:14.462Z,99762.76
2018-07-25T11:54:40.470Z,99774.38
2018-07-25T11:57:06.418Z,99753.11
2018-07-25T11:59:32.413Z,99756.28
2018-07-25T12:01:58.449Z,99761.43
2018-07-25T12:04:24.408Z,99765.31
2018-07-25T12:06:50.959Z,99757.93
2018-07-25T12:09:17.666Z,99746.83
2018-07-25T12:11:43.646Z,99750.91
2018-07-25T12:14:09.642Z,99752.70
2018-07-25T12:16:35.629Z,99749.52
2018-07-25T12:19:01.625Z,99750.31
2018-07-25T12:21:27.571Z,99752.56
2018-07-25T12:23:53.538Z,99756.80
2018-07-25T12:26:19.546Z,99747.77
2018-07-25T12:28:45.582Z,99747.61
2018-07-25T12:31:11.563Z,99750.36
2018-07-25T12:33:37.557Z,99745.53
2018-07-25T12:36:03.520Z,99743.34
2018-07-25T12:38:29.478Z,99740.00
2018-07-25T12:40:55.447Z,99739.64
2018-07-25T12:43:21.414Z,99737.97
2018-07-25T12:45:47.603Z,99738.52
2018-07-25T12:48:13.605Z,99728.05
2018-07-25T12:50:39.569Z,99728.89
2018-07-25T12:53:05.572Z,99726.36
2018-07-25T12:55:31.571Z,99729.81
2018-07-25T12:57:57.545Z,99723.32
2018-07-25T13:00:23.603Z,99729.09
2018-07-25T13:02:49.608Z,99723.47
2018-07-25T13:05:15.586Z,99716.50
2018-07-25T13:07:41.636Z,99713.17
2018-07-25T13:10:07.612Z,99710.42
2018-07-25T13:12:33.607Z,99709.48
2018-07-25T13:14:59.633Z,99713.36
2018-07-25T13:17:25.639Z,99705.14
2018-07-25T13:19:56.217Z,99701.16
2018-07-25T13:22:26.344Z,99700.06
2018-07-25T13:24:52.381Z,99705.59
2018-07-25T13:27:18.399Z,99701.66
2018-07-25T13:29:44.939Z,99697.32
2018-07-25T13:32:10.986Z,99691.80
2018-07-25T13:34:37.006Z,99693.35
2018-07-25T13:37:03.162Z,99691.30
2018-07-25T13:39:29.037Z,99683.53
2018-07-25T13:41:55.020Z,99678.55
2018-07-25T13:44:21.005Z,99671.97
2018-07-25T13:46:47.013Z,99671.31
2018-07-25T13:49:12.966Z,99664.94
2018-07-25T13:51:38.967Z,99665.70
2018-07-25T13:54:04.962Z,99662.12
2018-07-25T13:56:30.960Z,99664.30
2018-07-25T13:58:56.972Z,99658.22
2018-07-25T14:01:22.970Z,99656.19
2018-07-25T14:03:48.998Z,99652.66
2018-07-25T14:06:14.989Z,99654.23
2018-07-25T14:08:41.427Z,99647.12
2018-07-25T14:11:07.434Z,99652.20
2018-07-25T14:13:33.419Z,99646.91
2018-07-25T14:15:59.403Z,99649.25
2018-07-25T14:18:25.412Z,99652.09
2018-07-25T14:20:51.389Z,99645.27
2018-07-25T14:23:17.339Z,99639.31
2018-07-25T14:25:43.342Z,99652.63
2018-07-25T14:28:09.333Z,99642.29
2018-07-25T14:30:35.394Z,99636.09
2018-07-25T14:33:01.310Z,99635.36
2018-07-25T14:35:27.528Z,99632.52
2018-07-25T14:37:53.516Z,99630.20
2018-07-25T14:40:19.644Z,99645.73
2018-07-25T14:42:45.523Z,99635.66
2018-07-25T14:45:11.535Z,99625.74
2018-07-25T14:47:37.510Z,99630.23
2018-07-25T14:50:03.628Z,99635.89
2018-07-25T14:52:29.701Z,99632.52
2018-07-25T14:54:55.623Z,99636.36
2018-07-25T14:57:21.611Z,99630.34
2018-07-25T14:59:47.571Z,99636.52
2018-07-25T15:02:13.570Z,99637.81
2018-07-25T15:04:39.546Z,99628.18
2018-07-25T15:07:05.556Z,99632.92
2018-07-25T15:09:31.533Z,99624.83
2018-07-25T15:11:57.485Z,99614.08
2018-07-25T15:14:23.419Z,99621.95
2018-07-25T15:16:49.382Z,99638.69
2018-07-25T15:19:15.356Z,99634.00
2018-07-25T15:21:41.370Z,99627.87
2018-07-25T15:24:07.347Z,99635.44
2018-07-25T15:26:33.319Z,99634.22
2018-07-25T15:28:59.324Z,99636.63
2018-07-25T15:31:25.267Z,99626.66
2018-07-25T15:33:51.268Z,99620.20
2018-07-25T15:36:17.370Z,99612.44
2018-07-25T15:38:43.277Z,99626.83
2018-07-25T15:41:09.255Z,99636.31
2018-07-25T15:43:35.209Z,99656.53
2018-07-25T15:46:01.206Z,99666.94
2018-07-25T15:48:27.204Z,99676.13
2018-07-25T15:50:53.221Z,99687.90
2018-07-25T15:53:19.213Z,99695.08
2018-07-25T15:55:45.245Z,99699.78
2018-07-25T15:58:11.232Z,99696.09
2018-07-25T16:00:38.212Z,99701.56
2018-07-25T16:03:04.189Z,99704.05
2018-07-25T16:05:31.242Z,99701.16
2018-07-25T16:07:57.269Z,99712.25
2018-07-25T16:10:23.259Z,99713.45
2018-07-25T16:12:49.285Z,99709.78
2018-07-25T16:15:15.404Z,99694.25
2018-07-25T16:17:41.562Z,99692.48
2018-07-25T16:20:07.580Z,99695.36
2018-07-25T16:22:33.817Z,99706.33
2018-07-25T16:24:59.887Z,99699.30
2018-07-25T16:27:25.907Z,99697.04
2018-07-25T16:29:51.998Z,99696.32
2018-07-25T16:32:18.050Z,99692.05
2018-07-25T16:34:44.072Z,99688.44
2018-07-25T16:37:10.071Z,99695.66
2018-07-25T16:39:36.115Z,99700.44
2018-07-25T16:42:02.109Z,99687.16
2018-07-25T16:44:28.127Z,99695.11
2018-07-25T16:46:54.139Z,99686.63
2018-07-25T16:49:20.172Z,99688.15
2018-07-25T16:51:46.209Z,99694.64
2018-07-25T16:54:12.171Z,99697.20
2018-07-25T16:56:38.282Z,99693.14
2018-07-25T16:59:04.301Z,99696.25
2018-07-25T17:01:30.538Z,99697.20
2018-07-25T17:03:56.522Z,99693.42
2018-07-25T17:06:22.559Z,99691.73
2018-07-25T17:08:48.629Z,99691.08
2018-07-25T17:11:14.601Z,99690.25
2018-07-25T17:13:40.591Z,99695.14
2018-07-25T17:16:06.615Z,99695.16
2018-07-25T17:18:32.889Z,99689.06
2018-07-25T17:20:59.116Z,99693.31
2018-07-25T17:23:25.184Z,99691.48
2018-07-25T17:25:51.292Z,99696.46
2018-07-25T17:28:17.370Z,99697.46
2018-07-25T17:30:43.458Z,99696.27
2018-07-25T17:33:10.528Z,99704.40
2018-07-25T17:35:36.546Z,99701.83
2018-07-25T17:38:02.551Z,99706.06
2018-07-25T17:40:28.583Z,99710.03
2018-07-25T17:45:31.370Z,99711.61
2018-07-25T17:47:57.592Z,99709.93
2018-07-25T17:50:23.589Z,99709.38
2018-07-25T17:52:49.693Z,99711.03
2018-07-25T17:55:15.713Z,99713.45
2018-07-25T17:57:42.723Z,99714.10
2018-07-25T18:00:08.840Z,99721.56
2018-07-25T18:02:34.912Z,99724.16
2018-07-25T18:05:01.182Z,99719.84
2018-07-25T18:07:27.189Z,99724.89
2018-07-25T18:09:53.202Z,99703.56
2018-07-25T18:12:20.117Z,99717.80
2018-07-25T18:14:46.150Z,99727.13
2018-07-25T18:17:12.203Z,99735.59
2018-07-25T18:19:38.169Z,99752.16
2018-07-25T18:22:04.257Z,99742.84
2018-07-25T18:24:30.280Z,99751.80
2018-07-25T18:26:56.372Z,99755.28
2018-07-25T18:29:22.526Z,99758.05
2018-07-25T18:31:48.498Z,99757.53
2018-07-25T18:34:14.621Z,99760.27
2018-07-25T18:36:40.656Z,99764.37
2018-07-25T18:39:07.573Z,99762.59
2018-07-25T18:41:33.737Z,99758.19
2018-07-25T18:44:00.878Z,99766.41
2018-07-25T18:46:27.014Z,99764.20
2018-07-25T18:48:53.288Z,99767.31
2018-07-25T18:51:19.350Z,99766.38
2018-07-25T18:53:45.438Z,99764.64
2018-07-25T18:56:12.694Z,99764.91
2018-07-25T18:58:38.902Z,99764.64
2018-07-25T19:01:04.963Z,99763.39
2018-07-25T19:03:31.057Z,99765.91
2018-07-25T19:05:57.118Z,99770.46
2018-07-25T19:08:23.362Z,99770.88
2018-07-25T19:10:49.406Z,99772.66
2018-07-25T19:13:15.487Z,99776.12
2018-07-25T19:15:41.519Z,99771.70
2018-07-25T19:18:07.647Z,99778.85
2018-07-25T19:20:33.648Z,99775.71
2018-07-25T19:22:59.634Z,99780.98
2018-07-25T19:25:26.756Z,99778.06
2018-07-25T19:27:52.873Z,99782.56
2018-07-25T19:30:18.995Z,99788.36
2018-07-25T19:32:45.095Z,99785.61
2018-07-25T19:35:11.435Z,99779.75
2018-07-25T19:37:37.690Z,99789.55
2018-07-25T19:40:03.807Z,99789.19
2018-07-25T19:42:29.872Z,99790.09
2018-07-25T19:44:57.019Z,99791.11
2018-07-25T19:47:23.079Z,99791.95
2018-07-25T19:49:49.106Z,99791.59
2018-07-25T19:52:15.137Z,99792.64
2018-07-25T19:54:43.147Z,99797.06
2018-07-25T19:57:10.620Z,99794.16
2018-07-25T19:59:36.690Z,99793.06
2018-07-25T20:02:02.753Z,99796.59
2018-07-25T20:04:28.706Z,99802.19
2018-07-25T20:06:54.772Z,99792.28
2018-07-25T20:09:20.726Z,99791.95
2018-07-25T20:11:46.718Z,99789.98
2018-07-25T20:14:17.584Z,99791.95
2018-07-25T20:16:43.598Z,99784.03
2018-07-25T20:19:09.549Z,99787.72
2018-07-25T20:21:35.872Z,99791.53
2018-07-25T20:24:01.888Z,99786.28
2018-07-25T20:26:27.913Z,99788.49
2018-07-25T20:28:53.910Z,99792.56
2018-07-25T20:31:19.969Z,99794.70
2018-07-25T20:33:45.942Z,99785.53
2018-07-25T20:36:11.934Z,99787.06
2018-07-25T20:38:37.926Z,99785.54
2018-07-25T20:41:03.963Z,99783.42
2018-07-25T20:43:30.019Z,99787.91
2018-07-25T20:45:55.996Z,99792.34
2018-07-25T20:48:22.041Z,99791.98
2018-07-25T20:50:48.755Z,99789.52
2018-07-25T20:53:14.937Z,99792.84
2018-07-25T20:55:40.924Z,99787.13
2018-07-25T20:58:06.906Z,99791.95
2018-07-25T21:00:33.216Z,99794.33
2018-07-25T21:02:59.096Z,99797.13
2018-07-25T21:05:26.044Z,99800.28
2018-07-25T21:07:52.131Z,99798.19
2018-07-25T21:10:18.137Z,99797.50
2018-07-25T21:12:44.113Z,99799.05
2018-07-25T21:15:10.132Z,99801.45
2018-07-25T21:17:36.117Z,99808.86
2018-07-25T21:20:02.082Z,99810.39
2018-07-25T21:22:28.068Z,99811.41
2018-07-25T21:24:54.049Z,99814.93
2018-07-25T21:27:20.079Z,99810.50
2018-07-25T21:29:46.059Z,99818.72
2018-07-25T21:32:12.026Z,99819.11
2018-07-25T21:34:38.100Z,99825.32
2018-07-25T21:37:04.106Z,99831.72
2018-07-25T21:39:33.968Z,99834.07
2018-07-25T21:41:59.927Z,99839.77
2018-07-25T21:44:26.113Z,99828.78
2018-07-25T21:46:52.085Z,99838.55
2018-07-25T21:49:20.901Z,99833.94
2018-07-25T21:51:47.297Z,99837.95
2018-07-25T21:54:14.504Z,99842.08
2018-07-25T21:56:40.888Z,99839.66
2018-07-25T21:59:07.022Z,99839.49
2018-07-25T22:01:33.310Z,99834.22
2018-07-25T22:03:59.344Z,99839.27
2018-07-25T22:06:25.355Z,99841.28
2018-07-25T22:08:52.825Z,99840.52
2018-07-25T22:11:18.820Z,99846.25
2018-07-25T22:13:44.805Z,99840.08
2018-07-25T22:16:10.845Z,99851.00
2018-07-25T22:18:36.879Z,99845.14
2018-07-25T22:21:02.920Z,99850.47
2018-07-25T22:23:28.947Z,99850.56
2018-07-25T22:25:54.953Z,99849.05
2018-07-25T22:28:20.939Z,99855.96
2018-07-25T22:30:46.954Z,99845.55
2018-07-25T22:33:12.948Z,99844.56
2018-07-25T22:35:38.960Z,99844.86
2018-07-25T22:38:04.985Z,99843.93
2018-07-25T22:40:31.009Z,99849.27
2018-07-25T22:42:57.107Z,99845.80
2018-07-25T22:45:23.460Z,99851.39
2018-07-25T22:47:49.424Z,99848.23
2018-07-25T22:50:15.382Z,99854.27
2018-07-25T22:52:41.361Z,99856.61
2018-07-25T22:55:07.315Z,99846.88
2018-07-25T22:57:33.310Z,99850.51
2018-07-25T22:59:59.279Z,99852.31
2018-07-25T23:02:25.476Z,99851.05
2018-07-25T23:04:51.433Z,99857.04
2018-07-25T23:07:17.399Z,99851.06
2018-07-25T23:09:43.477Z,99850.75
2018-07-25T23:12:09.454Z,99845.78
2018-07-25T23:14:35.461Z,99848.52
2018-07-25T23:17:02.345Z,99849.16
2018-07-25T23:19:28.338Z,99849.20
2018-07-25T23:21:54.351Z,99851.53
2018-07-25T23:24:20.573Z,99845.78
2018-07-25T23:26:46.516Z,99848.54
2018-07-25T23:29:12.558Z,99845.66
2018-07-25T23:31:38.510Z,99852.98
2018-07-25T23:34:04.457Z,99847.81
2018-07-25T23:36:30.406Z,99842.94
2018-07-25T23:38:56.357Z,99853.23
2018-07-25T23:41:22.332Z,99851.20
2018-07-25T23:43:48.274Z,99843.89
2018-07-25T23:46:14.245Z,99847.45
2018-07-25T23:48:40.239Z,99846.13
2018-07-25T23:51:06.255Z,99841.65
2018-07-25T23:53:32.202Z,99846.69
2018-07-25T23:55:58.182Z,99833.30
2018-07-25T23:58:24.170Z,99833.97
